sensor_id;sensor_type;location;lat;lon;timestamp;P1;durP1;ratioP1;P2;durP2;ratioP2
43146;SDS011;28752;48.266;7.402;2023-04-03T00:01:21;7.43;;;4.20;;
43146;SDS011;28752;48.266;7.402;2023-04-03T00:03:46;7.27;;;4.27;;
43146;SDS011;28752;48.266;7.402;2023-04-03T00:06:12;6.00;;;4.00;;
43146;SDS011;28752;48.266;7.402;2023-04-03T00:08:38;6.68;;;3.85;;
43146;SDS011;28752;48.266;7.402;2023-04-03T00:11:05;5.88;;;4.03;;
43146;SDS011;28752;48.266;7.402;2023-04-03T00:13:32;5.65;;;3.65;;
43146;SDS011;28752;48.266;7.402;2023-04-03T00:15:58;5.32;;;3.60;;
43146;SDS011;28752;48.266;7.402;2023-04-03T00:18:23;5.95;;;3.28;;
43146;SDS011;28752;48.266;7.402;2023-04-03T00:20:49;5.63;;;3.45;;
43146;SDS011;28752;48.266;7.402;2023-04-03T00:23:15;5.80;;;3.47;;
43146;SDS011;28752;48.266;7.402;2023-04-03T00:25:41;5.10;;;3.22;;
43146;SDS011;28752;48.266;7.402;2023-04-03T00:28:07;6.32;;;3.33;;
43146;SDS011;28752;48.266;7.402;2023-04-03T00:30:32;6.37;;;3.50;;
43146;SDS011;28752;48.266;7.402;2023-04-03T00:32:58;7.20;;;3.50;;
43146;SDS011;28752;48.266;7.402;2023-04-03T00:35:24;5.97;;;3.63;;
43146;SDS011;28752;48.266;7.402;2023-04-03T00:37:53;5.85;;;3.00;;
43146;SDS011;28752;48.266;7.402;2023-04-03T00:40:20;7.25;;;3.50;;
43146;SDS011;28752;48.266;7.402;2023-04-03T00:42:48;5.45;;;3.40;;
43146;SDS011;28752;48.266;7.402;2023-04-03T00:45:24;5.88;;;3.70;;
43146;SDS011;28752;48.266;7.402;2023-04-03T00:47:58;9.20;;;3.53;;
43146;SDS011;28752;48.266;7.402;2023-04-03T00:50:27;6.55;;;3.70;;
43146;SDS011;28752;48.266;7.402;2023-04-03T00:52:54;5.97;;;3.20;;
43146;SDS011;28752;48.266;7.402;2023-04-03T00:55:20;6.25;;;3.38;;
43146;SDS011;28752;48.266;7.402;2023-04-03T00:57:46;5.63;;;3.58;;
43146;SDS011;28752;48.266;7.402;2023-04-03T01:00:13;6.97;;;3.83;;
43146;SDS011;28752;48.266;7.402;2023-04-03T01:02:41;5.60;;;3.30;;
43146;SDS011;28752;48.266;7.402;2023-04-03T01:05:07;7.55;;;3.45;;
43146;SDS011;28752;48.266;7.402;2023-04-03T01:10:01;7.65;;;4.00;;
43146;SDS011;28752;48.266;7.402;2023-04-03T01:12:37;7.05;;;3.45;;
43146;SDS011;28752;48.266;7.402;2023-04-03T01:15:09;5.88;;;3.13;;
43146;SDS011;28752;48.266;7.402;2023-04-03T01:17:41;6.28;;;3.40;;
43146;SDS011;28752;48.266;7.402;2023-04-03T01:28:18;5.22;;;3.25;;
43146;SDS011;28752;48.266;7.402;2023-04-03T01:33:40;6.78;;;3.60;;
43146;SDS011;28752;48.266;7.402;2023-04-03T01:36:06;5.68;;;3.45;;
43146;SDS011;28752;48.266;7.402;2023-04-03T01:38:34;6.63;;;3.13;;
43146;SDS011;28752;48.266;7.402;2023-04-03T01:40:59;5.80;;;3.47;;
43146;SDS011;28752;48.266;7.402;2023-04-03T01:43:25;6.18;;;3.03;;
43146;SDS011;28752;48.266;7.402;2023-04-03T01:45:51;5.77;;;3.37;;
43146;SDS011;28752;48.266;7.402;2023-04-03T01:48:17;6.28;;;3.20;;
43146;SDS011;28752;48.266;7.402;2023-04-03T01:50:43;6.70;;;3.50;;
43146;SDS011;28752;48.266;7.402;2023-04-03T01:53:08;7.60;;;3.30;;
43146;SDS011;28752;48.266;7.402;2023-04-03T01:55:33;7.10;;;3.50;;
43146;SDS011;28752;48.266;7.402;2023-04-03T01:57:59;5.47;;;3.00;;
43146;SDS011;28752;48.266;7.402;2023-04-03T02:00:24;5.27;;;3.17;;
43146;SDS011;28752;48.266;7.402;2023-04-03T02:02:51;5.85;;;3.20;;
43146;SDS011;28752;48.266;7.402;2023-04-03T02:05:17;4.88;;;3.05;;
43146;SDS011;28752;48.266;7.402;2023-04-03T02:07:42;4.53;;;2.77;;
43146;SDS011;28752;48.266;7.402;2023-04-03T02:10:08;5.77;;;2.77;;
43146;SDS011;28752;48.266;7.402;2023-04-03T02:12:33;5.22;;;3.00;;
43146;SDS011;28752;48.266;7.402;2023-04-03T02:14:59;6.33;;;2.70;;
43146;SDS011;28752;48.266;7.402;2023-04-03T02:17:24;7.00;;;2.80;;
43146;SDS011;28752;48.266;7.402;2023-04-03T02:19:50;7.38;;;3.03;;
43146;SDS011;28752;48.266;7.402;2023-04-03T02:22:15;5.73;;;3.00;;
43146;SDS011;28752;48.266;7.402;2023-04-03T02:24:40;6.10;;;2.90;;
43146;SDS011;28752;48.266;7.402;2023-04-03T02:27:06;6.57;;;2.90;;
43146;SDS011;28752;48.266;7.402;2023-04-03T02:29:31;5.83;;;3.00;;
43146;SDS011;28752;48.266;7.402;2023-04-03T02:31:57;5.50;;;2.80;;
43146;SDS011;28752;48.266;7.402;2023-04-03T02:34:22;6.97;;;2.90;;
43146;SDS011;28752;48.266;7.402;2023-04-03T02:36:48;7.37;;;2.93;;
43146;SDS011;28752;48.266;7.402;2023-04-03T02:39:13;5.77;;;2.77;;
43146;SDS011;28752;48.266;7.402;2023-04-03T02:41:38;5.53;;;2.53;;
43146;SDS011;28752;48.266;7.402;2023-04-03T02:44:05;4.70;;;2.85;;
43146;SDS011;28752;48.266;7.402;2023-04-03T02:46:31;4.35;;;2.63;;
43146;SDS011;28752;48.266;7.402;2023-04-03T02:48:57;4.70;;;2.47;;
43146;SDS011;28752;48.266;7.402;2023-04-03T02:51:23;4.25;;;2.30;;
43146;SDS011;28752;48.266;7.402;2023-04-03T02:53:49;5.20;;;2.80;;
43146;SDS011;28752;48.266;7.402;2023-04-03T02:56:14;5.53;;;2.72;;
43146;SDS011;28752;48.266;7.402;2023-04-03T02:58:40;4.18;;;2.40;;
43146;SDS011;28752;48.266;7.402;2023-04-03T03:01:06;4.80;;;2.50;;
43146;SDS011;28752;48.266;7.402;2023-04-03T03:08:33;5.35;;;2.88;;
43146;SDS011;28752;48.266;7.402;2023-04-03T03:10:58;7.00;;;3.33;;
43146;SDS011;28752;48.266;7.402;2023-04-03T03:13:24;5.37;;;2.60;;
43146;SDS011;28752;48.266;7.402;2023-04-03T03:15:49;6.97;;;2.92;;
43146;SDS011;28752;48.266;7.402;2023-04-03T03:18:15;4.90;;;2.73;;
43146;SDS011;28752;48.266;7.402;2023-04-03T03:20:40;4.90;;;2.55;;
43146;SDS011;28752;48.266;7.402;2023-04-03T03:23:06;4.73;;;2.50;;
43146;SDS011;28752;48.266;7.402;2023-04-03T03:25:31;5.53;;;2.70;;
43146;SDS011;28752;48.266;7.402;2023-04-03T03:27:57;5.77;;;2.70;;
43146;SDS011;28752;48.266;7.402;2023-04-03T03:30:22;5.17;;;3.07;;
43146;SDS011;28752;48.266;7.402;2023-04-03T03:32:47;6.73;;;2.80;;
43146;SDS011;28752;48.266;7.402;2023-04-03T03:35:13;5.67;;;3.03;;
43146;SDS011;28752;48.266;7.402;2023-04-03T03:37:38;5.10;;;2.70;;
43146;SDS011;28752;48.266;7.402;2023-04-03T03:40:04;4.47;;;2.60;;
43146;SDS011;28752;48.266;7.402;2023-04-03T03:42:30;6.07;;;2.90;;
43146;SDS011;28752;48.266;7.402;2023-04-03T03:44:55;6.47;;;2.77;;
43146;SDS011;28752;48.266;7.402;2023-04-03T03:47:20;5.33;;;2.67;;
43146;SDS011;28752;48.266;7.402;2023-04-03T03:49:46;5.03;;;2.80;;
43146;SDS011;28752;48.266;7.402;2023-04-03T03:52:11;5.60;;;2.90;;
43146;SDS011;28752;48.266;7.402;2023-04-03T03:59:29;5.60;;;2.58;;
43146;SDS011;28752;48.266;7.402;2023-04-03T04:01:54;5.50;;;3.13;;
43146;SDS011;28752;48.266;7.402;2023-04-03T04:04:20;7.00;;;3.10;;
43146;SDS011;28752;48.266;7.402;2023-04-03T04:06:45;5.40;;;2.93;;
43146;SDS011;28752;48.266;7.402;2023-04-03T04:09:11;6.63;;;3.07;;
43146;SDS011;28752;48.266;7.402;2023-04-03T04:11:36;5.10;;;2.85;;
43146;SDS011;28752;48.266;7.402;2023-04-03T04:14:02;5.13;;;3.10;;
43146;SDS011;28752;48.266;7.402;2023-04-03T04:16:27;6.53;;;3.30;;
43146;SDS011;28752;48.266;7.402;2023-04-03T04:18:52;4.97;;;3.00;;
43146;SDS011;28752;48.266;7.402;2023-04-03T04:21:18;6.17;;;3.10;;
43146;SDS011;28752;48.266;7.402;2023-04-03T04:23:43;5.53;;;2.90;;
43146;SDS011;28752;48.266;7.402;2023-04-03T04:26:08;4.90;;;2.80;;
43146;SDS011;28752;48.266;7.402;2023-04-03T04:28:34;5.57;;;2.77;;
43146;SDS011;28752;48.266;7.402;2023-04-03T04:30:59;7.70;;;3.40;;
43146;SDS011;28752;48.266;7.402;2023-04-03T04:33:25;6.70;;;2.87;;
43146;SDS011;28752;48.266;7.402;2023-04-03T04:35:50;7.33;;;2.90;;
43146;SDS011;28752;48.266;7.402;2023-04-03T04:38:16;4.60;;;2.78;;
43146;SDS011;28752;48.266;7.402;2023-04-03T04:40:42;6.05;;;3.00;;
43146;SDS011;28752;48.266;7.402;2023-04-03T04:43:07;6.23;;;3.03;;
43146;SDS011;28752;48.266;7.402;2023-04-03T04:45:33;7.53;;;3.40;;
43146;SDS011;28752;48.266;7.402;2023-04-03T04:47:58;4.83;;;2.80;;
43146;SDS011;28752;48.266;7.402;2023-04-03T04:50:23;6.73;;;3.23;;
43146;SDS011;28752;48.266;7.402;2023-04-03T04:52:49;8.60;;;3.30;;
43146;SDS011;28752;48.266;7.402;2023-04-03T04:55:14;4.70;;;3.00;;
43146;SDS011;28752;48.266;7.402;2023-04-03T04:57:40;5.87;;;3.00;;
43146;SDS011;28752;48.266;7.402;2023-04-03T05:00:05;6.10;;;3.03;;
43146;SDS011;28752;48.266;7.402;2023-04-03T05:02:31;6.38;;;3.33;;
43146;SDS011;28752;48.266;7.402;2023-04-03T05:04:56;9.30;;;4.07;;
43146;SDS011;28752;48.266;7.402;2023-04-03T05:07:22;8.80;;;4.13;;
43146;SDS011;28752;48.266;7.402;2023-04-03T05:09:47;6.37;;;3.10;;
43146;SDS011;28752;48.266;7.402;2023-04-03T05:12:13;6.60;;;3.17;;
43146;SDS011;28752;48.266;7.402;2023-04-03T05:14:38;6.87;;;3.13;;
43146;SDS011;28752;48.266;7.402;2023-04-03T05:17:03;8.23;;;4.43;;
43146;SDS011;28752;48.266;7.402;2023-04-03T05:19:29;6.83;;;3.17;;
43146;SDS011;28752;48.266;7.402;2023-04-03T05:21:54;6.30;;;3.37;;
43146;SDS011;28752;48.266;7.402;2023-04-03T05:24:19;9.17;;;4.87;;
43146;SDS011;28752;48.266;7.402;2023-04-03T05:26:45;5.70;;;3.53;;
43146;SDS011;28752;48.266;7.402;2023-04-03T05:29:10;7.53;;;3.10;;
43146;SDS011;28752;48.266;7.402;2023-04-03T05:31:36;9.17;;;3.60;;
43146;SDS011;28752;48.266;7.402;2023-04-03T05:34:01;6.03;;;3.37;;
43146;SDS011;28752;48.266;7.402;2023-04-03T05:36:27;8.30;;;3.65;;
43146;SDS011;28752;48.266;7.402;2023-04-03T05:38:52;5.00;;;3.10;;
43146;SDS011;28752;48.266;7.402;2023-04-03T05:41:18;5.03;;;3.30;;
43146;SDS011;28752;48.266;7.402;2023-04-03T05:43:45;7.95;;;3.50;;
43146;SDS011;28752;48.266;7.402;2023-04-03T05:46:11;7.88;;;3.60;;
43146;SDS011;28752;48.266;7.402;2023-04-03T05:48:38;8.82;;;4.75;;
43146;SDS011;28752;48.266;7.402;2023-04-03T05:51:04;13.30;;;7.97;;
43146;SDS011;28752;48.266;7.402;2023-04-03T05:53:31;30.00;;;17.33;;
43146;SDS011;28752;48.266;7.402;2023-04-03T05:55:59;18.38;;;12.30;;
43146;SDS011;28752;48.266;7.402;2023-04-03T05:58:25;23.13;;;12.73;;
43146;SDS011;28752;48.266;7.402;2023-04-03T06:00:50;22.77;;;11.60;;
43146;SDS011;28752;48.266;7.402;2023-04-03T06:03:15;8.37;;;5.43;;
43146;SDS011;28752;48.266;7.402;2023-04-03T06:05:41;9.18;;;5.50;;
43146;SDS011;28752;48.266;7.402;2023-04-03T06:08:07;13.15;;;7.22;;
43146;SDS011;28752;48.266;7.402;2023-04-03T06:10:33;8.88;;;5.68;;
43146;SDS011;28752;48.266;7.402;2023-04-03T06:12:59;7.53;;;5.07;;
43146;SDS011;28752;48.266;7.402;2023-04-03T06:15:24;6.33;;;3.20;;
43146;SDS011;28752;48.266;7.402;2023-04-03T06:17:50;6.17;;;4.07;;
43146;SDS011;28752;48.266;7.402;2023-04-03T06:20:15;6.60;;;4.10;;
43146;SDS011;28752;48.266;7.402;2023-04-03T06:22:41;7.10;;;3.80;;
43146;SDS011;28752;48.266;7.402;2023-04-03T06:25:07;8.40;;;3.92;;
43146;SDS011;28752;48.266;7.402;2023-04-03T06:27:33;7.88;;;4.03;;
43146;SDS011;28752;48.266;7.402;2023-04-03T06:29:58;6.03;;;3.60;;
43146;SDS011;28752;48.266;7.402;2023-04-03T06:32:23;8.73;;;4.13;;
43146;SDS011;28752;48.266;7.402;2023-04-03T06:34:49;8.30;;;3.70;;
43146;SDS011;28752;48.266;7.402;2023-04-03T06:37:15;6.63;;;4.03;;
43146;SDS011;28752;48.266;7.402;2023-04-03T06:39:42;6.90;;;3.78;;
43146;SDS011;28752;48.266;7.402;2023-04-03T06:42:08;8.73;;;3.95;;
43146;SDS011;28752;48.266;7.402;2023-04-03T06:44:33;6.80;;;3.47;;
43146;SDS011;28752;48.266;7.402;2023-04-03T06:46:59;7.50;;;3.58;;
43146;SDS011;28752;48.266;7.402;2023-04-03T06:49:25;5.95;;;3.25;;
43146;SDS011;28752;48.266;7.402;2023-04-03T06:51:51;6.40;;;3.30;;
43146;SDS011;28752;48.266;7.402;2023-04-03T06:54:16;6.27;;;3.00;;
43146;SDS011;28752;48.266;7.402;2023-04-03T06:56:42;7.07;;;3.97;;
43146;SDS011;28752;48.266;7.402;2023-04-03T06:59:07;6.67;;;3.70;;
43146;SDS011;28752;48.266;7.402;2023-04-03T07:01:33;8.95;;;3.63;;
43146;SDS011;28752;48.266;7.402;2023-04-03T07:03:59;9.87;;;4.40;;
43146;SDS011;28752;48.266;7.402;2023-04-03T07:06:24;6.87;;;4.23;;
43146;SDS011;28752;48.266;7.402;2023-04-03T07:08:51;6.88;;;4.10;;
43146;SDS011;28752;48.266;7.402;2023-04-03T07:11:17;8.68;;;3.90;;
43146;SDS011;28752;48.266;7.402;2023-04-03T07:13:43;6.47;;;3.70;;
43146;SDS011;28752;48.266;7.402;2023-04-03T07:16:08;5.63;;;3.40;;
43146;SDS011;28752;48.266;7.402;2023-04-03T07:18:34;7.60;;;3.60;;
43146;SDS011;28752;48.266;7.402;2023-04-03T07:21:00;6.38;;;3.80;;
43146;SDS011;28752;48.266;7.402;2023-04-03T07:23:27;7.13;;;3.72;;
43146;SDS011;28752;48.266;7.402;2023-04-03T07:25:53;7.03;;;3.70;;
43146;SDS011;28752;48.266;7.402;2023-04-03T07:28:19;7.97;;;3.35;;
43146;SDS011;28752;48.266;7.402;2023-04-03T07:30:52;7.53;;;3.47;;
43146;SDS011;28752;48.266;7.402;2023-04-03T07:33:20;7.35;;;4.20;;
43146;SDS011;28752;48.266;7.402;2023-04-03T07:35:47;7.63;;;3.88;;
43146;SDS011;28752;48.266;7.402;2023-04-03T07:38:13;9.82;;;4.15;;
43146;SDS011;28752;48.266;7.402;2023-04-03T07:40:39;7.32;;;3.53;;
43146;SDS011;28752;48.266;7.402;2023-04-03T07:43:05;8.07;;;3.80;;
43146;SDS011;28752;48.266;7.402;2023-04-03T07:45:30;5.82;;;3.40;;
43146;SDS011;28752;48.266;7.402;2023-04-03T07:47:56;6.10;;;3.45;;
43146;SDS011;28752;48.266;7.402;2023-04-03T07:50:22;9.15;;;4.40;;
43146;SDS011;28752;48.266;7.402;2023-04-03T07:52:47;7.50;;;4.13;;
43146;SDS011;28752;48.266;7.402;2023-04-03T07:55:13;6.53;;;3.40;;
43146;SDS011;28752;48.266;7.402;2023-04-03T07:57:39;4.78;;;3.03;;
43146;SDS011;28752;48.266;7.402;2023-04-03T08:00:05;5.60;;;3.40;;
43146;SDS011;28752;48.266;7.402;2023-04-03T08:02:31;6.68;;;3.70;;
43146;SDS011;28752;48.266;7.402;2023-04-03T08:04:57;6.00;;;3.37;;
43146;SDS011;28752;48.266;7.402;2023-04-03T08:12:14;7.40;;;3.73;;
43146;SDS011;28752;48.266;7.402;2023-04-03T08:14:40;6.57;;;3.35;;
43146;SDS011;28752;48.266;7.402;2023-04-03T08:17:05;6.82;;;3.40;;
43146;SDS011;28752;48.266;7.402;2023-04-03T08:19:34;7.60;;;3.53;;
43146;SDS011;28752;48.266;7.402;2023-04-03T08:22:00;5.50;;;3.33;;
43146;SDS011;28752;48.266;7.402;2023-04-03T08:24:27;6.35;;;3.78;;
43146;SDS011;28752;48.266;7.402;2023-04-03T08:26:53;8.98;;;3.65;;
43146;SDS011;28752;48.266;7.402;2023-04-03T08:29:19;6.27;;;3.83;;
43146;SDS011;28752;48.266;7.402;2023-04-03T08:31:44;5.32;;;3.13;;
43146;SDS011;28752;48.266;7.402;2023-04-03T08:34:10;7.78;;;3.33;;
43146;SDS011;28752;48.266;7.402;2023-04-03T08:36:36;7.00;;;3.60;;
43146;SDS011;28752;48.266;7.402;2023-04-03T08:39:02;6.80;;;3.70;;
43146;SDS011;28752;48.266;7.402;2023-04-03T08:47:02;7.28;;;3.85;;
43146;SDS011;28752;48.266;7.402;2023-04-03T08:49:33;8.07;;;3.25;;
43146;SDS011;28752;48.266;7.402;2023-04-03T08:52:08;5.63;;;3.72;;
43146;SDS011;28752;48.266;7.402;2023-04-03T08:54:40;6.88;;;3.72;;
43146;SDS011;28752;48.266;7.402;2023-04-03T08:57:15;5.53;;;3.05;;
43146;SDS011;28752;48.266;7.402;2023-04-03T08:59:42;7.60;;;3.90;;
43146;SDS011;28752;48.266;7.402;2023-04-03T09:02:50;5.77;;;3.37;;
43146;SDS011;28752;48.266;7.402;2023-04-03T09:04:59;5.82;;;3.55;;
43146;SDS011;28752;48.266;7.402;2023-04-03T09:07:31;6.32;;;3.08;;
43146;SDS011;28752;48.266;7.402;2023-04-03T09:10:04;4.82;;;3.25;;
43146;SDS011;28752;48.266;7.402;2023-04-03T09:12:37;13.10;;;6.65;;
43146;SDS011;28752;48.266;7.402;2023-04-03T09:15:19;6.82;;;3.70;;
43146;SDS011;28752;48.266;7.402;2023-04-03T09:23:22;4.47;;;2.58;;
43146;SDS011;28752;48.266;7.402;2023-04-03T09:25:53;8.75;;;2.90;;
43146;SDS011;28752;48.266;7.402;2023-04-03T09:28:26;6.10;;;3.20;;
43146;SDS011;28752;48.266;7.402;2023-04-03T09:30:55;6.50;;;2.80;;
43146;SDS011;28752;48.266;7.402;2023-04-03T09:33:20;5.03;;;2.63;;
43146;SDS011;28752;48.266;7.402;2023-04-03T09:35:47;5.60;;;2.63;;
43146;SDS011;28752;48.266;7.402;2023-04-03T09:38:16;6.38;;;3.00;;
43146;SDS011;28752;48.266;7.402;2023-04-03T09:40:44;4.60;;;2.78;;
43146;SDS011;28752;48.266;7.402;2023-04-03T09:45:55;6.00;;;2.83;;
43146;SDS011;28752;48.266;7.402;2023-04-03T09:48:23;4.88;;;2.45;;
43146;SDS011;28752;48.266;7.402;2023-04-03T09:53:32;6.07;;;2.50;;
43146;SDS011;28752;48.266;7.402;2023-04-03T10:01:31;4.63;;;2.45;;
43146;SDS011;28752;48.266;7.402;2023-04-03T10:06:34;5.00;;;2.50;;
43146;SDS011;28752;48.266;7.402;2023-04-03T10:09:10;4.00;;;2.30;;
43146;SDS011;28752;48.266;7.402;2023-04-03T10:11:46;3.90;;;2.13;;
43146;SDS011;28752;48.266;7.402;2023-04-03T10:14:23;4.88;;;2.10;;
43146;SDS011;28752;48.266;7.402;2023-04-03T10:16:52;4.57;;;2.23;;
43146;SDS011;28752;48.266;7.402;2023-04-03T10:22:13;4.05;;;2.25;;
43146;SDS011;28752;48.266;7.402;2023-04-03T10:25:01;4.78;;;2.15;;
43146;SDS011;28752;48.266;7.402;2023-04-03T10:32:57;4.07;;;2.05;;
43146;SDS011;28752;48.266;7.402;2023-04-03T10:40:57;4.63;;;2.20;;
43146;SDS011;28752;48.266;7.402;2023-04-03T10:46:27;3.67;;;2.05;;
43146;SDS011;28752;48.266;7.402;2023-04-03T10:57:38;3.97;;;1.90;;
43146;SDS011;28752;48.266;7.402;2023-04-03T11:00:06;6.38;;;3.95;;
43146;SDS011;28752;48.266;7.402;2023-04-03T11:05:26;4.22;;;2.20;;
43146;SDS011;28752;48.266;7.402;2023-04-03T11:07:54;3.60;;;1.83;;
43146;SDS011;28752;48.266;7.402;2023-04-03T11:10:23;4.03;;;2.42;;
43146;SDS011;28752;48.266;7.402;2023-04-03T11:13:21;3.47;;;1.92;;
43146;SDS011;28752;48.266;7.402;2023-04-03T11:15:52;5.32;;;2.50;;
43146;SDS011;28752;48.266;7.402;2023-04-03T11:18:26;4.53;;;2.15;;
43146;SDS011;28752;48.266;7.402;2023-04-03T11:21:03;6.03;;;3.00;;
43146;SDS011;28752;48.266;7.402;2023-04-03T11:23:33;3.95;;;2.38;;
43146;SDS011;28752;48.266;7.402;2023-04-03T11:26:06;7.05;;;3.63;;
43146;SDS011;28752;48.266;7.402;2023-04-03T11:28:37;4.75;;;2.40;;
43146;SDS011;28752;48.266;7.402;2023-04-03T11:31:09;5.22;;;2.70;;
43146;SDS011;28752;48.266;7.402;2023-04-03T11:36:26;5.78;;;3.45;;
43146;SDS011;28752;48.266;7.402;2023-04-03T11:38:56;5.60;;;2.30;;
43146;SDS011;28752;48.266;7.402;2023-04-03T11:41:26;4.20;;;2.30;;
43146;SDS011;28752;48.266;7.402;2023-04-03T11:58:02;3.95;;;2.10;;
43146;SDS011;28752;48.266;7.402;2023-04-03T12:11:39;7.68;;;3.60;;
43146;SDS011;28752;48.266;7.402;2023-04-03T12:16:29;5.37;;;3.00;;
43146;SDS011;28752;48.266;7.402;2023-04-03T12:43:23;4.75;;;2.50;;
43146;SDS011;28752;48.266;7.402;2023-04-03T12:46:10;4.68;;;2.60;;
43146;SDS011;28752;48.266;7.402;2023-04-03T12:48:55;4.78;;;2.42;;
43146;SDS011;28752;48.266;7.402;2023-04-03T12:51:27;4.25;;;2.40;;
43146;SDS011;28752;48.266;7.402;2023-04-03T12:54:01;5.32;;;2.25;;
43146;SDS011;28752;48.266;7.402;2023-04-03T12:56:30;4.03;;;2.13;;
43146;SDS011;28752;48.266;7.402;2023-04-03T12:59:16;4.80;;;2.45;;
43146;SDS011;28752;48.266;7.402;2023-04-03T13:01:55;5.55;;;2.80;;
43146;SDS011;28752;48.266;7.402;2023-04-03T13:04:22;3.85;;;2.50;;
43146;SDS011;28752;48.266;7.402;2023-04-03T13:06:49;4.93;;;3.00;;
43146;SDS011;28752;48.266;7.402;2023-04-03T13:09:19;6.28;;;2.40;;
43146;SDS011;28752;48.266;7.402;2023-04-03T13:11:53;4.18;;;2.00;;
43146;SDS011;28752;48.266;7.402;2023-04-03T13:14:25;6.60;;;2.30;;
43146;SDS011;28752;48.266;7.402;2023-04-03T13:16:57;4.55;;;2.22;;
43146;SDS011;28752;48.266;7.402;2023-04-03T13:19:35;4.10;;;2.30;;
43146;SDS011;28752;48.266;7.402;2023-04-03T13:22:02;5.93;;;2.47;;
43146;SDS011;28752;48.266;7.402;2023-04-03T13:24:31;4.47;;;2.28;;
43146;SDS011;28752;48.266;7.402;2023-04-03T13:27:01;4.82;;;2.20;;
43146;SDS011;28752;48.266;7.402;2023-04-03T13:29:31;5.32;;;2.67;;
43146;SDS011;28752;48.266;7.402;2023-04-03T13:31:59;6.43;;;2.47;;
43146;SDS011;28752;48.266;7.402;2023-04-03T13:34:28;4.13;;;2.40;;
43146;SDS011;28752;48.266;7.402;2023-04-03T13:37:00;6.03;;;2.83;;
43146;SDS011;28752;48.266;7.402;2023-04-03T13:39:38;6.32;;;2.88;;
43146;SDS011;28752;48.266;7.402;2023-04-03T13:42:21;3.63;;;2.20;;
43146;SDS011;28752;48.266;7.402;2023-04-03T13:45:05;3.45;;;1.92;;
43146;SDS011;28752;48.266;7.402;2023-04-03T13:47:41;4.70;;;2.67;;
43146;SDS011;28752;48.266;7.402;2023-04-03T13:52:44;4.65;;;2.67;;
43146;SDS011;28752;48.266;7.402;2023-04-03T13:57:59;5.28;;;2.70;;
43146;SDS011;28752;48.266;7.402;2023-04-03T14:02:55;5.18;;;2.35;;
43146;SDS011;28752;48.266;7.402;2023-04-03T14:05:22;4.10;;;2.20;;
43146;SDS011;28752;48.266;7.402;2023-04-03T14:07:49;3.75;;;1.90;;
43146;SDS011;28752;48.266;7.402;2023-04-03T14:10:15;4.95;;;2.40;;
43146;SDS011;28752;48.266;7.402;2023-04-03T14:12:41;5.07;;;2.40;;
43146;SDS011;28752;48.266;7.402;2023-04-03T14:15:18;6.10;;;2.47;;
43146;SDS011;28752;48.266;7.402;2023-04-03T14:17:47;4.65;;;2.70;;
43146;SDS011;28752;48.266;7.402;2023-04-03T14:20:16;4.83;;;2.60;;
43146;SDS011;28752;48.266;7.402;2023-04-03T14:22:43;3.90;;;1.95;;
43146;SDS011;28752;48.266;7.402;2023-04-03T14:30:07;5.90;;;2.13;;
43146;SDS011;28752;48.266;7.402;2023-04-03T14:32:38;3.97;;;2.40;;
43146;SDS011;28752;48.266;7.402;2023-04-03T14:35:03;6.33;;;3.10;;
43146;SDS011;28752;48.266;7.402;2023-04-03T14:37:29;5.45;;;2.15;;
43146;SDS011;28752;48.266;7.402;2023-04-03T14:42:24;4.45;;;2.80;;
43146;SDS011;28752;48.266;7.402;2023-04-03T14:44:53;3.80;;;2.40;;
43146;SDS011;28752;48.266;7.402;2023-04-03T14:47:19;3.97;;;2.25;;
43146;SDS011;28752;48.266;7.402;2023-04-03T14:49:47;4.43;;;2.40;;
43146;SDS011;28752;48.266;7.402;2023-04-03T14:52:16;4.80;;;2.40;;
43146;SDS011;28752;48.266;7.402;2023-04-03T14:55:04;4.97;;;2.78;;
43146;SDS011;28752;48.266;7.402;2023-04-03T14:57:31;5.30;;;2.33;;
43146;SDS011;28752;48.266;7.402;2023-04-03T14:59:56;6.40;;;2.33;;
43146;SDS011;28752;48.266;7.402;2023-04-03T15:04:58;5.50;;;2.25;;
43146;SDS011;28752;48.266;7.402;2023-04-03T15:07:35;5.22;;;2.40;;
43146;SDS011;28752;48.266;7.402;2023-04-03T15:10:26;5.28;;;2.10;;
43146;SDS011;28752;48.266;7.402;2023-04-03T15:12:53;4.18;;;2.10;;
43146;SDS011;28752;48.266;7.402;2023-04-03T15:15:21;4.63;;;1.90;;
43146;SDS011;28752;48.266;7.402;2023-04-03T15:17:49;4.28;;;2.17;;
43146;SDS011;28752;48.266;7.402;2023-04-03T15:20:21;5.32;;;1.92;;
43146;SDS011;28752;48.266;7.402;2023-04-03T15:22:49;5.32;;;2.38;;
43146;SDS011;28752;48.266;7.402;2023-04-03T15:25:15;4.65;;;2.05;;
43146;SDS011;28752;48.266;7.402;2023-04-03T15:27:40;6.78;;;2.22;;
43146;SDS011;28752;48.266;7.402;2023-04-03T15:30:07;4.00;;;1.98;;
43146;SDS011;28752;48.266;7.402;2023-04-03T15:32:38;4.00;;;1.88;;
43146;SDS011;28752;48.266;7.402;2023-04-03T15:35:03;4.87;;;2.07;;
43146;SDS011;28752;48.266;7.402;2023-04-03T15:37:29;5.03;;;2.10;;
43146;SDS011;28752;48.266;7.402;2023-04-03T15:39:54;7.07;;;2.60;;
43146;SDS011;28752;48.266;7.402;2023-04-03T15:42:20;5.57;;;2.20;;
43146;SDS011;28752;48.266;7.402;2023-04-03T15:44:45;5.00;;;2.00;;
43146;SDS011;28752;48.266;7.402;2023-04-03T15:47:11;5.23;;;2.57;;
43146;SDS011;28752;48.266;7.402;2023-04-03T15:49:36;4.72;;;2.72;;
43146;SDS011;28752;48.266;7.402;2023-04-03T15:52:03;5.07;;;2.20;;
43146;SDS011;28752;48.266;7.402;2023-04-03T15:54:28;4.75;;;1.85;;
43146;SDS011;28752;48.266;7.402;2023-04-03T15:56:54;5.00;;;2.17;;
43146;SDS011;28752;48.266;7.402;2023-04-03T15:59:20;5.90;;;2.20;;
43146;SDS011;28752;48.266;7.402;2023-04-03T16:01:46;5.88;;;2.10;;
43146;SDS011;28752;48.266;7.402;2023-04-03T16:04:11;6.67;;;2.70;;
43146;SDS011;28752;48.266;7.402;2023-04-03T16:06:37;6.53;;;2.50;;
43146;SDS011;28752;48.266;7.402;2023-04-03T16:09:03;5.13;;;2.25;;
43146;SDS011;28752;48.266;7.402;2023-04-03T16:11:29;4.43;;;2.00;;
43146;SDS011;28752;48.266;7.402;2023-04-03T16:13:55;6.03;;;2.72;;
43146;SDS011;28752;48.266;7.402;2023-04-03T16:16:21;8.13;;;4.10;;
43146;SDS011;28752;48.266;7.402;2023-04-03T16:18:48;5.82;;;2.83;;
43146;SDS011;28752;48.266;7.402;2023-04-03T16:21:14;5.75;;;2.38;;
43146;SDS011;28752;48.266;7.402;2023-04-03T16:23:41;7.10;;;3.20;;
43146;SDS011;28752;48.266;7.402;2023-04-03T16:26:07;6.40;;;3.70;;
43146;SDS011;28752;48.266;7.402;2023-04-03T16:28:34;5.28;;;2.80;;
43146;SDS011;28752;48.266;7.402;2023-04-03T16:31:00;5.85;;;2.38;;
43146;SDS011;28752;48.266;7.402;2023-04-03T16:33:26;9.68;;;5.10;;
43146;SDS011;28752;48.266;7.402;2023-04-03T16:35:52;10.38;;;4.85;;
43146;SDS011;28752;48.266;7.402;2023-04-03T16:38:18;10.00;;;5.10;;
43146;SDS011;28752;48.266;7.402;2023-04-03T16:43:10;5.45;;;2.40;;
43146;SDS011;28752;48.266;7.402;2023-04-03T16:45:36;5.40;;;2.53;;
43146;SDS011;28752;48.266;7.402;2023-04-03T16:48:01;7.47;;;4.40;;
43146;SDS011;28752;48.266;7.402;2023-04-03T16:50:27;5.97;;;3.00;;
43146;SDS011;28752;48.266;7.402;2023-04-03T16:52:52;6.30;;;2.60;;
43146;SDS011;28752;48.266;7.402;2023-04-03T16:55:18;6.77;;;3.13;;
43146;SDS011;28752;48.266;7.402;2023-04-03T16:57:43;5.10;;;2.93;;
43146;SDS011;28752;48.266;7.402;2023-04-03T17:00:09;7.00;;;3.30;;
43146;SDS011;28752;48.266;7.402;2023-04-03T17:02:34;5.45;;;2.38;;
43146;SDS011;28752;48.266;7.402;2023-04-03T17:05:00;5.57;;;2.67;;
43146;SDS011;28752;48.266;7.402;2023-04-03T17:07:25;5.07;;;2.50;;
43146;SDS011;28752;48.266;7.402;2023-04-03T17:09:51;5.93;;;2.50;;
43146;SDS011;28752;48.266;7.402;2023-04-03T17:12:18;7.55;;;3.28;;
43146;SDS011;28752;48.266;7.402;2023-04-03T17:14:44;4.88;;;2.30;;
43146;SDS011;28752;48.266;7.402;2023-04-03T17:17:11;5.25;;;3.10;;
43146;SDS011;28752;48.266;7.402;2023-04-03T17:19:38;5.78;;;3.05;;
43146;SDS011;28752;48.266;7.402;2023-04-03T17:22:04;5.70;;;2.90;;
43146;SDS011;28752;48.266;7.402;2023-04-03T17:31:47;6.27;;;3.20;;
43146;SDS011;28752;48.266;7.402;2023-04-03T17:34:13;5.70;;;3.20;;